createdAt,value
2022-08-16T00:00:03.702Z,18.01
2022-08-16T00:02:33.124Z,17.94
2022-08-16T00:05:01.921Z,17.96
2022-08-16T00:07:30.439Z,17.97
2022-08-16T00:09:58.938Z,17.91
2022-08-16T00:12:29.456Z,17.90
2022-08-16T00:14:58.414Z,17.91
2022-08-16T00:17:27.112Z,17.85
2022-08-16T00:19:56.172Z,17.88
2022-08-16T00:22:25.007Z,17.85
2022-08-16T00:24:54.558Z,17.90
2022-08-16T00:27:22.594Z,17.80
2022-08-16T00:30:08.279Z,17.87
2022-08-16T00:32:38.997Z,17.64
2022-08-16T00:35:15.111Z,17.85
2022-08-16T00:37:56.879Z,17.83
2022-08-16T00:40:43.845Z,17.83
2022-08-16T00:43:42.785Z,17.81
2022-08-16T00:46:33.960Z,17.79
2022-08-16T00:49:03.443Z,17.78
2022-08-16T00:51:30.307Z,17.63
2022-08-16T00:53:57.804Z,17.74
2022-08-16T00:56:57.883Z,17.69
2022-08-16T00:59:18.267Z,17.70
2022-08-16T01:01:46.273Z,17.69
2022-08-16T01:04:29.704Z,17.69
2022-08-16T01:07:02.100Z,17.67
2022-08-16T01:09:34.484Z,17.68
2022-08-16T01:12:08.460Z,17.51
2022-08-16T01:14:43.418Z,17.68
2022-08-16T01:17:12.701Z,17.28
2022-08-16T01:19:48.216Z,17.66
2022-08-16T01:22:47.504Z,17.69
2022-08-16T01:25:33.649Z,17.68
2022-08-16T01:28:05.920Z,17.67
2022-08-16T01:30:36.747Z,17.69
2022-08-16T01:33:14.453Z,17.42
2022-08-16T01:35:56.294Z,17.66
2022-08-16T01:38:40.269Z,17.59
2022-08-16T01:41:21.177Z,17.64
2022-08-16T01:43:53.938Z,17.59
2022-08-16T01:46:40.259Z,17.63
2022-08-16T01:49:10.207Z,17.57
2022-08-16T01:51:39.369Z,17.63
2022-08-16T01:54:06.357Z,17.60
2022-08-16T01:56:35.426Z,17.66
2022-08-16T01:59:05.909Z,17.69
2022-08-16T02:01:34.136Z,17.72
2022-08-16T02:04:10.459Z,17.74
2022-08-16T02:06:46.814Z,17.63
2022-08-16T02:09:17.906Z,17.77
2022-08-16T02:11:48.737Z,17.82
2022-08-16T02:14:26.343Z,17.83
2022-08-16T02:16:55.212Z,17.88
2022-08-16T02:19:23.608Z,17.89
2022-08-16T02:22:07.912Z,17.97
2022-08-16T02:24:42.225Z,18.00
2022-08-16T02:27:14.348Z,18.05
2022-08-16T02:29:42.885Z,18.08
2022-08-16T02:32:49.877Z,18.15
2022-08-16T02:34:59.445Z,18.19
2022-08-16T02:37:51.488Z,18.26
2022-08-16T02:40:17.052Z,18.31
2022-08-16T02:42:49.626Z,18.33
2022-08-16T02:45:20.751Z,18.37
2022-08-16T02:48:01.867Z,18.40
2022-08-16T02:50:54.814Z,18.44
2022-08-16T02:53:26.571Z,18.43
2022-08-16T02:55:53.772Z,18.42
2022-08-16T02:58:25.098Z,18.44
2022-08-16T03:00:56.050Z,18.51
2022-08-16T03:03:26.482Z,18.54
2022-08-16T03:05:59.283Z,18.54
2022-08-16T03:08:51.188Z,18.57
2022-08-16T03:11:16.759Z,18.62
2022-08-16T03:13:56.556Z,18.67
2022-08-16T03:16:38.060Z,18.72
2022-08-16T03:19:07.579Z,18.79
2022-08-16T03:21:37.792Z,18.82
2022-08-16T03:24:28.168Z,18.73
2022-08-16T03:26:57.817Z,18.91
2022-08-16T03:29:30.308Z,18.94
2022-08-16T03:31:59.148Z,18.96
2022-08-16T03:34:27.019Z,19.00
2022-08-16T03:36:54.577Z,19.01
2022-08-16T03:39:23.151Z,19.09
2022-08-16T03:41:59.246Z,19.10
2022-08-16T03:44:43.295Z,19.09
2022-08-16T03:47:11.962Z,19.13
2022-08-16T03:49:39.792Z,19.10
2022-08-16T03:52:09.076Z,19.22
2022-08-16T03:54:35.948Z,19.24
2022-08-16T03:57:11.309Z,19.24
2022-08-16T03:59:43.526Z,19.33
2022-08-16T04:02:22.314Z,19.38
2022-08-16T04:04:49.877Z,19.43
2022-08-16T04:07:17.612Z,19.44
2022-08-16T04:09:44.915Z,19.45
2022-08-16T04:12:54.536Z,19.40
2022-08-16T04:14:59.595Z,19.57
2022-08-16T04:17:26.970Z,19.60
2022-08-16T04:19:54.949Z,19.61
2022-08-16T04:22:27.359Z,19.69
2022-08-16T04:24:55.460Z,19.73
2022-08-16T04:27:28.860Z,19.80
2022-08-16T04:30:02.751Z,19.90
2022-08-16T04:32:30.540Z,19.91
2022-08-16T04:34:57.234Z,19.79
2022-08-16T04:37:23.903Z,20.09
2022-08-16T04:39:55.251Z,20.14
2022-08-16T04:42:26.482Z,20.25
2022-08-16T04:45:01.853Z,20.32
2022-08-16T04:47:35.550Z,20.40
2022-08-16T04:50:06.594Z,20.44
2022-08-16T04:52:35.961Z,20.55
2022-08-16T04:55:07.389Z,20.56
2022-08-16T04:57:35.711Z,20.67
2022-08-16T05:00:30.445Z,20.70
2022-08-16T05:02:58.664Z,20.76
2022-08-16T05:05:25.903Z,20.81
2022-08-16T05:08:28.169Z,20.85
2022-08-16T05:10:49.355Z,20.92
2022-08-16T05:13:19.476Z,20.98
2022-08-16T05:15:47.408Z,21.02
2022-08-16T05:18:17.140Z,21.07
2022-08-16T05:20:57.032Z,21.14
2022-08-16T05:23:31.686Z,21.21
2022-08-16T05:25:59.840Z,21.14
2022-08-16T05:28:37.440Z,21.32
2022-08-16T05:31:05.002Z,21.38
2022-08-16T05:33:33.722Z,21.46
2022-08-16T05:36:03.840Z,21.49
2022-08-16T05:38:39.034Z,21.61
2022-08-16T05:41:06.484Z,21.70
2022-08-16T05:43:43.723Z,21.71
2022-08-16T05:46:28.888Z,21.85
2022-08-16T05:49:08.871Z,21.88
2022-08-16T05:51:41.489Z,21.94
2022-08-16T05:54:11.512Z,21.93
2022-08-16T05:56:41.577Z,22.02
2022-08-16T05:59:10.801Z,22.08
2022-08-16T06:01:38.849Z,22.14
2022-08-16T06:04:13.163Z,22.19
2022-08-16T06:06:43.526Z,22.24
2022-08-16T06:09:24.350Z,22.27
2022-08-16T06:11:52.831Z,22.29
2022-08-16T06:14:19.734Z,22.31
2022-08-16T06:16:50.781Z,22.34
2022-08-16T06:19:18.316Z,22.40
2022-08-16T06:21:46.004Z,22.42
2022-08-16T06:24:55.067Z,22.41
2022-08-16T06:27:08.706Z,22.37
2022-08-16T06:29:36.260Z,22.29
2022-08-16T06:32:04.231Z,22.31
2022-08-16T06:34:55.610Z,22.33
2022-08-16T06:37:18.906Z,22.32
2022-08-16T06:39:49.302Z,22.34
2022-08-16T06:42:19.658Z,22.42
2022-08-16T06:44:47.479Z,22.44
2022-08-16T06:47:17.285Z,22.46
2022-08-16T06:49:52.548Z,22.48
2022-08-16T06:53:00.759Z,22.47
2022-08-16T06:55:12.797Z,22.50
2022-08-16T06:57:40.276Z,22.57
2022-08-16T07:00:19.809Z,22.68
2022-08-16T07:02:53.791Z,22.62
2022-08-16T07:05:27.322Z,22.72
2022-08-16T07:08:11.433Z,22.91
2022-08-16T07:10:38.770Z,23.04
2022-08-16T07:13:11.601Z,23.13
2022-08-16T07:15:50.719Z,23.20
2022-08-16T07:18:21.230Z,23.18
2022-08-16T07:20:56.053Z,23.32
2022-08-16T07:23:37.412Z,23.38
2022-08-16T07:26:12.621Z,23.48
2022-08-16T07:28:52.275Z,23.63
2022-08-16T07:31:20.920Z,23.70
2022-08-16T07:33:52.377Z,23.71
2022-08-16T07:36:21.693Z,23.84
2022-08-16T07:38:50.168Z,23.79
2022-08-16T07:41:18.696Z,23.98
2022-08-16T07:43:48.774Z,24.10
2022-08-16T07:46:38.687Z,24.19
2022-08-16T07:49:04.360Z,24.32
2022-08-16T07:51:37.156Z,24.40
2022-08-16T07:54:09.539Z,24.49
2022-08-16T07:56:38.798Z,24.58
2022-08-16T07:59:06.954Z,24.73
2022-08-16T08:01:34.763Z,24.83
2022-08-16T08:04:02.571Z,24.96
2022-08-16T08:06:32.432Z,24.83
2022-08-16T08:09:00.288Z,25.08
2022-08-16T08:11:30.809Z,25.20
2022-08-16T08:14:02.982Z,25.29
2022-08-16T08:16:31.575Z,25.37
2022-08-16T08:19:02.450Z,25.46
2022-08-16T08:22:01.427Z,25.60
2022-08-16T08:24:18.214Z,25.67
2022-08-16T08:26:46.070Z,25.76
2022-08-16T08:29:22.840Z,25.81
2022-08-16T08:31:53.245Z,26.02
2022-08-16T08:34:22.085Z,26.08
2022-08-16T08:36:54.210Z,26.21
2022-08-16T08:39:22.118Z,26.33
2022-08-16T08:41:50.415Z,26.42
2022-08-16T08:44:28.985Z,26.46
2022-08-16T08:47:04.734Z,26.64
2022-08-16T08:49:46.134Z,26.75
2022-08-16T08:52:35.337Z,26.84
2022-08-16T08:55:10.449Z,26.98
2022-08-16T08:57:40.727Z,27.25
2022-08-16T09:00:13.059Z,27.37
2022-08-16T09:02:42.824Z,27.47
2022-08-16T09:05:15.816Z,27.71
2022-08-16T09:08:01.447Z,27.97
2022-08-16T09:10:31.140Z,28.36
2022-08-16T09:12:59.187Z,28.51
2022-08-16T09:15:32.853Z,28.38
2022-08-16T09:18:24.721Z,28.20
2022-08-16T09:20:59.626Z,29.23
2022-08-16T09:23:41.195Z,31.18
2022-08-16T09:26:45.331Z,32.84
2022-08-16T09:29:14.835Z,33.80
2022-08-16T09:31:43.921Z,32.62
2022-08-16T09:34:17.191Z,32.76
2022-08-16T09:36:46.374Z,33.64
2022-08-16T09:39:16.085Z,32.20
2022-08-16T09:41:43.886Z,31.93
2022-08-16T09:45:12.927Z,32.95
2022-08-16T09:47:15.065Z,35.61
2022-08-16T09:49:41.776Z,37.39
2022-08-16T09:52:09.987Z,38.34
2022-08-16T09:54:38.662Z,38.95
2022-08-16T09:57:14.363Z,39.02
2022-08-16T09:59:42.339Z,38.92
2022-08-16T10:02:26.791Z,39.17
2022-08-16T10:05:00.462Z,39.35
2022-08-16T10:07:44.320Z,40.56
2022-08-16T10:10:13.214Z,40.91
2022-08-16T10:13:04.459Z,40.08
2022-08-16T10:15:32.492Z,40.29
2022-08-16T10:18:02.498Z,41.43
2022-08-16T10:20:49.839Z,41.54
2022-08-16T10:23:17.194Z,41.04
2022-08-16T10:27:16.892Z,40.88
2022-08-16T10:28:39.874Z,41.11
2022-08-16T10:31:08.750Z,41.43
2022-08-16T10:33:40.683Z,42.03
2022-08-16T10:36:08.411Z,43.10
2022-08-16T10:38:39.211Z,44.05
2022-08-16T10:41:10.339Z,43.37
2022-08-16T10:43:39.439Z,42.94
2022-08-16T10:46:39.944Z,42.77
2022-08-16T10:48:56.383Z,43.36
2022-08-16T10:51:33.449Z,43.83
2022-08-16T10:54:01.870Z,43.61
2022-08-16T10:56:52.071Z,43.83
2022-08-16T10:59:38.378Z,45.35
2022-08-16T11:05:08.975Z,47.57
2022-08-16T11:07:45.446Z,48.36
2022-08-16T11:13:57.267Z,49.28
2022-08-16T11:16:25.348Z,48.57
2022-08-16T11:19:05.379Z,47.75
2022-08-16T11:21:37.660Z,47.70
2022-08-16T11:24:39.693Z,47.99
2022-08-16T11:27:35.478Z,49.07
2022-08-16T11:29:56.959Z,49.49
2022-08-16T11:32:31.416Z,48.03
2022-08-16T11:35:13.853Z,47.72
2022-08-16T11:40:44.510Z,48.38
2022-08-16T11:43:16.965Z,47.28
2022-08-16T11:45:50.694Z,46.68
2022-08-16T11:48:21.969Z,46.27
2022-08-16T11:50:48.694Z,45.83
2022-08-16T11:53:15.423Z,44.83
2022-08-16T11:55:44.175Z,43.89
2022-08-16T11:58:11.343Z,43.76
2022-08-16T12:00:50.354Z,44.20
2022-08-16T12:03:19.313Z,43.82
2022-08-16T12:05:46.722Z,43.18
2022-08-16T12:08:19.550Z,43.66
2022-08-16T12:10:49.079Z,43.02
2022-08-16T12:13:15.941Z,42.41
2022-08-16T12:15:43.423Z,42.15
2022-08-16T12:18:20.493Z,42.83
2022-08-16T12:20:47.975Z,43.33
2022-08-16T12:23:16.324Z,43.56
2022-08-16T12:25:44.655Z,44.93
2022-08-16T12:28:12.436Z,45.88
2022-08-16T12:30:43.767Z,46.89
2022-08-16T12:33:16.362Z,47.04
2022-08-16T12:35:52.487Z,46.45
2022-08-16T12:38:38.674Z,47.12
2022-08-16T12:41:15.747Z,47.26
2022-08-16T12:43:56.907Z,47.11
2022-08-16T12:46:30.904Z,47.13
2022-08-16T12:48:58.646Z,46.63
2022-08-16T12:51:59.965Z,45.30
2022-08-16T12:54:22.088Z,43.42
2022-08-16T12:56:50.555Z,43.65
2022-08-16T12:59:20.469Z,44.49
2022-08-16T13:01:47.855Z,43.70
2022-08-16T13:04:20.813Z,42.59
2022-08-16T13:06:52.320Z,42.06
2022-08-16T13:09:26.845Z,41.24
2022-08-16T13:12:07.548Z,40.11
2022-08-16T13:14:41.661Z,39.76
2022-08-16T13:17:18.876Z,40.41
2022-08-16T13:20:18.344Z,40.62
2022-08-16T13:22:38.100Z,39.64
2022-08-16T13:25:08.732Z,39.53
2022-08-16T13:28:01.400Z,39.24
2022-08-16T13:30:35.796Z,40.01
2022-08-16T13:33:13.405Z,39.73
2022-08-16T13:35:45.770Z,40.27
2022-08-16T13:38:25.067Z,41.06
2022-08-16T13:40:57.185Z,40.85
2022-08-16T13:43:28.869Z,40.04
2022-08-16T13:46:04.598Z,40.31
2022-08-16T13:48:42.933Z,39.94
2022-08-16T13:51:16.989Z,39.60
2022-08-16T13:53:59.664Z,38.75
2022-08-16T13:56:36.929Z,37.35
2022-08-16T13:59:19.465Z,35.52
2022-08-16T14:01:55.439Z,34.42
2022-08-16T14:04:27.532Z,34.78
2022-08-16T14:06:56.257Z,36.09
2022-08-16T14:09:23.857Z,36.54
2022-08-16T14:11:53.702Z,36.42
2022-08-16T14:14:28.923Z,36.01
2022-08-16T14:16:58.243Z,35.96
2022-08-16T14:19:26.479Z,36.24
2022-08-16T14:22:14.415Z,36.30
2022-08-16T14:24:45.327Z,35.71
2022-08-16T14:27:14.198Z,35.76
2022-08-16T14:29:42.341Z,35.29
2022-08-16T14:32:21.921Z,34.33
2022-08-16T14:34:59.929Z,34.05
2022-08-16T14:37:28.855Z,33.52
2022-08-16T14:39:58.784Z,32.42
2022-08-16T14:42:27.714Z,31.37
2022-08-16T14:45:00.244Z,30.40
2022-08-16T14:47:31.573Z,30.35
2022-08-16T14:50:01.877Z,30.95
2022-08-16T14:52:54.197Z,31.44
2022-08-16T14:55:16.087Z,32.18
2022-08-16T14:57:43.657Z,32.62
2022-08-16T15:00:13.138Z,32.79
2022-08-16T15:02:43.891Z,32.86
2022-08-16T15:05:12.925Z,32.58
2022-08-16T15:07:41.303Z,31.77
2022-08-16T15:10:21.684Z,31.35
2022-08-16T15:12:58.287Z,31.39
2022-08-16T15:15:27.920Z,31.25
2022-08-16T15:17:56.430Z,31.14
2022-08-16T15:20:26.790Z,31.13
2022-08-16T15:22:56.935Z,31.14
2022-08-16T15:25:29.468Z,30.64
2022-08-16T15:27:57.842Z,30.57
2022-08-16T15:30:56.637Z,30.56
2022-08-16T15:33:16.741Z,30.25
2022-08-16T15:35:44.832Z,30.07
2022-08-16T15:38:54.833Z,29.59
2022-08-16T15:40:59.450Z,29.02
2022-08-16T15:43:39.256Z,28.58
2022-08-16T15:46:35.230Z,28.01
2022-08-16T15:49:10.427Z,27.57
2022-08-16T15:51:39.270Z,27.42
2022-08-16T15:54:21.087Z,27.19
2022-08-16T15:56:55.310Z,26.90
2022-08-16T15:59:26.932Z,26.83
2022-08-16T16:01:55.823Z,26.62
2022-08-16T16:04:25.862Z,26.33
2022-08-16T16:06:52.932Z,26.02
2022-08-16T16:09:34.718Z,25.81
2022-08-16T16:12:16.349Z,25.53
2022-08-16T16:14:52.476Z,25.35
2022-08-16T16:17:19.148Z,25.18
2022-08-16T16:19:45.776Z,24.95
2022-08-16T16:22:21.260Z,24.73
2022-08-16T16:24:51.341Z,24.58
2022-08-16T16:27:18.099Z,24.40
2022-08-16T16:29:46.408Z,24.22
2022-08-16T16:32:34.321Z,24.02
2022-08-16T16:35:04.684Z,23.70
2022-08-16T16:37:32.832Z,23.64
2022-08-16T16:40:00.217Z,23.51
2022-08-16T16:42:29.998Z,23.38
2022-08-16T16:45:01.628Z,23.19
2022-08-16T16:47:40.616Z,23.10
2022-08-16T16:50:10.152Z,23.01
2022-08-16T16:52:43.901Z,22.91
2022-08-16T16:58:00.881Z,22.71
2022-08-16T17:00:38.559Z,22.60
2022-08-16T17:03:17.063Z,22.45
2022-08-16T17:05:56.978Z,22.43
2022-08-16T17:08:28.974Z,22.32
2022-08-16T17:10:56.216Z,22.18
2022-08-16T17:13:24.534Z,22.13
2022-08-16T17:15:53.525Z,22.12
2022-08-16T17:19:15.098Z,21.99
2022-08-16T17:21:10.000Z,21.97
2022-08-16T17:23:59.612Z,21.90
2022-08-16T17:26:28.900Z,21.84
2022-08-16T17:29:02.559Z,21.77
2022-08-16T17:31:45.189Z,21.68
2022-08-16T17:34:29.005Z,21.64
2022-08-16T17:36:59.388Z,21.54
2022-08-16T17:39:29.621Z,21.53
2022-08-16T17:42:00.201Z,21.45
2022-08-16T17:44:27.011Z,21.52
2022-08-16T17:46:53.660Z,21.51
2022-08-16T17:49:21.593Z,21.49
2022-08-16T17:51:49.245Z,21.49
2022-08-16T17:54:20.412Z,21.33
2022-08-16T17:57:01.245Z,21.44
2022-08-16T17:59:29.552Z,21.43
2022-08-16T18:01:57.631Z,21.27
2022-08-16T18:04:48.299Z,21.23
2022-08-16T18:07:12.265Z,21.31
2022-08-16T18:09:40.698Z,21.33
2022-08-16T18:12:44.786Z,21.32
2022-08-16T18:15:02.308Z,21.27
2022-08-16T18:17:28.925Z,21.19
2022-08-16T18:19:55.651Z,21.25
2022-08-16T18:22:30.579Z,21.18
2022-08-16T18:24:58.073Z,21.19
2022-08-16T18:27:27.319Z,21.16
2022-08-16T18:29:57.452Z,21.09
2022-08-16T18:32:24.830Z,21.02
2022-08-16T18:34:54.495Z,20.94
2022-08-16T18:37:34.570Z,20.88
2022-08-16T18:40:01.882Z,20.86
2022-08-16T18:42:28.906Z,20.77
2022-08-16T18:44:57.085Z,20.77
2022-08-16T18:47:23.765Z,20.69
2022-08-16T18:49:50.447Z,20.64
2022-08-16T18:53:10.325Z,20.21
2022-08-16T18:55:37.499Z,20.50
2022-08-16T18:58:14.283Z,20.40
2022-08-16T19:00:56.429Z,20.44
2022-08-16T19:03:27.108Z,20.39
2022-08-16T19:06:04.031Z,20.32
2022-08-16T19:08:31.807Z,20.12
2022-08-16T19:10:58.505Z,20.19
2022-08-16T19:13:27.890Z,20.11
2022-08-16T19:15:58.469Z,20.05
2022-08-16T19:18:26.397Z,20.01
2022-08-16T19:20:55.566Z,19.95
2022-08-16T19:23:26.267Z,19.85
2022-08-16T19:26:04.903Z,19.84
2022-08-16T19:28:50.993Z,19.76
2022-08-16T19:31:29.793Z,19.74
2022-08-16T19:33:57.955Z,19.64
2022-08-16T19:36:35.795Z,19.66
2022-08-16T19:39:18.571Z,19.61
2022-08-16T19:41:57.236Z,19.54
2022-08-16T19:44:24.441Z,19.49
2022-08-16T19:46:51.410Z,19.44
2022-08-16T19:49:18.164Z,19.38
2022-08-16T19:51:46.011Z,19.30
2022-08-16T19:54:12.792Z,19.22
2022-08-16T19:56:39.447Z,19.25
2022-08-16T19:59:36.150Z,19.21
2022-08-16T20:01:53.234Z,19.19
2022-08-16T20:04:21.765Z,19.12
2022-08-16T20:06:48.679Z,19.19
2022-08-16T20:09:16.073Z,19.14
2022-08-16T20:11:49.499Z,19.01
2022-08-16T20:14:19.267Z,19.16
2022-08-16T20:16:52.036Z,19.15
2022-08-16T20:19:18.845Z,19.01
2022-08-16T20:21:45.560Z,19.11
2022-08-16T20:24:32.959Z,19.07
2022-08-16T20:26:58.970Z,19.09
2022-08-16T20:29:27.526Z,19.10
2022-08-16T20:31:54.247Z,19.12
2022-08-16T20:34:20.945Z,19.07
2022-08-16T20:36:47.672Z,19.05
2022-08-16T20:39:14.573Z,19.00
2022-08-16T20:41:42.471Z,19.02
2022-08-16T20:44:10.867Z,19.03
2022-08-16T20:46:38.994Z,18.99
2022-08-16T20:49:09.116Z,18.98
2022-08-16T20:51:50.936Z,18.91
2022-08-16T20:54:20.575Z,18.90
2022-08-16T20:56:48.318Z,18.88
2022-08-16T20:59:15.266Z,18.80
2022-08-16T21:01:46.514Z,18.83
2022-08-16T21:04:20.206Z,18.62
2022-08-16T21:06:53.410Z,18.81
2022-08-16T21:09:32.700Z,18.35
2022-08-16T21:12:17.953Z,18.71
2022-08-16T21:14:45.623Z,18.50
2022-08-16T21:17:20.353Z,18.69
2022-08-16T21:19:47.040Z,18.62
2022-08-16T21:22:31.926Z,18.66
2022-08-16T21:25:03.078Z,18.63
2022-08-16T21:27:30.096Z,18.56
2022-08-16T21:29:56.897Z,18.59
2022-08-16T21:32:35.648Z,18.51
2022-08-16T21:35:12.054Z,18.54
2022-08-16T21:37:40.197Z,18.51
2022-08-16T21:40:12.049Z,18.03
2022-08-16T21:42:41.870Z,18.29
2022-08-16T21:45:12.483Z,18.46
2022-08-16T21:47:39.154Z,18.44
2022-08-16T21:50:09.343Z,18.28
2022-08-16T21:52:36.469Z,18.36
2022-08-16T21:55:06.712Z,18.32
2022-08-16T21:57:36.752Z,18.34
2022-08-16T22:00:11.222Z,18.31
2022-08-16T22:02:38.984Z,18.27
2022-08-16T22:05:06.261Z,18.25
2022-08-16T22:07:33.415Z,18.22
2022-08-16T22:10:00.173Z,18.19
2022-08-16T22:12:46.921Z,18.18
2022-08-16T22:15:14.611Z,18.12
2022-08-16T22:17:42.797Z,18.01
2022-08-16T22:20:10.791Z,18.05
2022-08-16T22:22:38.343Z,18.08
2022-08-16T22:25:05.925Z,18.02
2022-08-16T22:27:32.805Z,18.00
2022-08-16T22:30:00.355Z,17.81
2022-08-16T22:32:27.845Z,17.93
2022-08-16T22:34:55.581Z,17.94
2022-08-16T22:37:26.243Z,17.88
2022-08-16T22:39:52.983Z,17.73
2022-08-16T22:42:19.921Z,17.90
2022-08-16T22:44:49.172Z,17.88
2022-08-16T22:47:17.898Z,17.82
2022-08-16T22:49:44.841Z,17.70
2022-08-16T22:52:11.523Z,17.71
2022-08-16T22:54:47.675Z,17.62
2022-08-16T22:57:20.893Z,17.67
2022-08-16T22:59:47.593Z,17.68
2022-08-16T23:02:19.700Z,17.72
2022-08-16T23:04:46.389Z,17.57
2022-08-16T23:07:13.039Z,17.68
2022-08-16T23:09:39.674Z,17.66
2022-08-16T23:12:07.809Z,17.63
2022-08-16T23:14:34.494Z,17.59
2022-08-16T23:17:01.362Z,17.60
2022-08-16T23:19:28.066Z,17.59
2022-08-16T23:21:54.703Z,17.54
2022-08-16T23:24:21.345Z,17.67
2022-08-16T23:26:49.341Z,17.73
2022-08-16T23:29:24.262Z,17.75
2022-08-16T23:31:56.980Z,17.83
2022-08-16T23:34:24.935Z,17.84
2022-08-16T23:36:51.941Z,17.83
2022-08-16T23:39:18.641Z,17.86
2022-08-16T23:41:45.408Z,17.82
2022-08-16T23:44:42.379Z,17.84
2022-08-16T23:46:59.880Z,17.83
2022-08-16T23:49:55.984Z,17.80
2022-08-16T23:52:13.872Z,17.77
2022-08-16T23:54:40.523Z,17.75
2022-08-16T23:57:08.133Z,17.68
2022-08-16T23:59:48.663Z,17.41
